Time;durP1;ratioP1;P1;durP2;ratioP2;P2;SDS_P1;SDS_P2;PMS_P1;PMS_P2;Temp;Humidity;BMP_temperature;BMP_pressure;BME280_temperature;BME280_humidity;BME280_pressure;Samples;Min_cycle;Max_cycle;Signal;HPM_P1;HPM_P2
2022/05/10 00:01:59;;;;;;;1.95;1.40;;;17.00;99.90;;;;;;5037377;28;20148;-58
2022/05/10 00:04:26;;;;;;;1.95;1.27;;;17.00;99.90;;;;;;5024982;28;20463;-59
2022/05/10 00:06:53;;;;;;;1.75;1.20;;;17.00;99.90;;;;;;5023865;28;20084;-59
2022/05/10 00:09:22;;;;;;;2.42;1.88;;;17.00;99.90;;;;;;5031470;28;20601;-59
2022/05/10 00:11:48;;;;;;;2.15;1.33;;;17.00;99.90;;;;;;5032862;28;20060;-59
2022/05/10 00:14:15;;;;;;;1.88;1.67;;;17.00;99.90;;;;;;5026744;28;20045;-59
2022/05/10 00:16:43;;;;;;;2.85;1.38;;;17.00;99.90;;;;;;5026591;28;20080;-58
2022/05/10 00:19:13;;;;;;;2.25;1.67;;;17.00;99.90;;;;;;5025822;28;20516;-59
2022/05/10 00:21:40;;;;;;;2.00;1.38;;;17.00;99.90;;;;;;5011797;28;20135;-58
2022/05/10 00:24:07;;;;;;;2.35;1.42;;;17.00;99.90;;;;;;5014418;28;20045;-59
2022/05/10 00:26:34;;;;;;;2.10;1.52;;;17.00;99.90;;;;;;5009838;28;20127;-59
2022/05/10 00:29:01;;;;;;;1.63;1.17;;;17.00;99.90;;;;;;5042119;28;20599;-59
2022/05/10 00:31:28;;;;;;;2.10;1.70;;;16.90;99.90;;;;;;5044428;28;20405;-59
2022/05/10 00:33:55;;;;;;;1.85;1.25;;;17.00;99.90;;;;;;5029758;28;20453;-59
2022/05/10 00:36:23;;;;;;;1.80;1.30;;;16.90;99.90;;;;;;5025433;28;20131;-59
2022/05/10 00:38:50;;;;;;;2.08;1.83;;;16.90;99.90;;;;;;5026430;28;20515;-59
2022/05/10 00:41:39;;;;;;;2.38;1.77;;;17.00;99.90;;;;;;5019837;28;20132;-59
2022/05/10 00:44:17;;;;;;;1.75;1.30;;;16.90;99.90;;;;;;5015955;28;20073;-59
2022/05/10 00:46:46;;;;;;;2.42;1.35;;;16.90;99.90;;;;;;5025900;28;20127;-64
2022/05/10 00:49:41;;;;;;;1.33;1.20;;;16.90;99.90;;;;;;5043487;28;20091;-60
2022/05/10 00:52:25;;;;;;;2.95;1.60;;;16.90;99.90;;;;;;5045558;28;20083;-59
2022/05/10 00:55:18;;;;;;;1.52;1.10;;;16.90;99.90;;;;;;5007991;28;20094;-59
2022/05/10 00:57:45;;;;;;;1.40;1.10;;;16.90;99.90;;;;;;5011407;28;20140;-59
2022/05/10 01:00:19;;;;;;;1.75;1.35;;;16.90;99.90;;;;;;5043076;28;20096;-58
2022/05/10 01:02:49;;;;;;;1.80;1.25;;;16.90;99.90;;;;;;5014301;28;20129;-59
2022/05/10 01:05:31;;;;;;;2.20;1.50;;;16.90;99.90;;;;;;4995330;28;20496;-59
2022/05/10 01:07:59;;;;;;;1.63;1.30;;;16.90;99.90;;;;;;5042234;28;20045;-58
2022/05/10 01:10:28;;;;;;;1.52;1.20;;;16.90;99.90;;;;;;5025845;28;20056;-58
2022/05/10 01:13:02;;;;;;;2.00;1.10;;;16.90;99.90;;;;;;5026041;28;20601;-58
2022/05/10 01:15:28;;;;;;;1.52;1.23;;;16.90;99.90;;;;;;5035071;28;20207;-59
2022/05/10 01:17:57;;;;;;;1.08;0.95;;;16.80;99.90;;;;;;5023350;28;20129;-58
2022/05/10 01:20:39;;;;;;;1.90;1.50;;;16.80;99.90;;;;;;5018439;28;20049;-59
2022/05/10 01:23:18;;;;;;;1.23;0.93;;;16.80;99.90;;;;;;5033517;28;20176;-59
2022/05/10 01:26:07;;;;;;;0.85;0.75;;;16.80;99.90;;;;;;5039917;28;20504;-59
2022/05/10 01:28:45;;;;;;;1.67;1.00;;;16.80;99.90;;;;;;5018581;28;20206;-58
2022/05/10 01:31:15;;;;;;;1.58;1.30;;;16.80;99.90;;;;;;5005203;28;20136;-58
2022/05/10 01:33:51;;;;;;;1.08;0.90;;;16.90;99.90;;;;;;5008110;28;20083;-58
2022/05/10 01:36:31;;;;;;;1.77;1.17;;;16.90;99.90;;;;;;4996470;28;20467;-58
2022/05/10 01:39:00;;;;;;;1.92;1.42;;;16.90;99.90;;;;;;5038433;28;20076;-58
2022/05/10 01:41:36;;;;;;;2.08;1.45;;;16.80;99.90;;;;;;5043660;28;20080;-58
2022/05/10 01:44:25;;;;;;;1.20;1.10;;;16.80;99.90;;;;;;5035562;28;20133;-59
2022/05/10 01:46:56;;;;;;;1.55;1.10;;;16.90;99.90;;;;;;5029731;28;20560;-59
2022/05/10 01:49:30;;;;;;;2.72;1.65;;;16.80;99.90;;;;;;5016529;28;20045;-58
2022/05/10 01:52:35;;;;;;;2.55;1.08;;;16.80;99.90;;;;;;5009525;28;20080;-58
2022/05/10 01:55:01;;;;;;;2.13;1.63;;;16.80;99.90;;;;;;5046044;28;20099;-59
2022/05/10 01:57:29;;;;;;;1.50;1.20;;;16.80;99.90;;;;;;5037782;28;20132;-59
2022/05/10 02:00:04;;;;;;;1.63;1.45;;;16.80;99.90;;;;;;5010873;28;20077;-58
2022/05/10 02:02:33;;;;;;;2.20;1.30;;;16.70;99.90;;;;;;5029532;28;20084;-59
2022/05/10 02:05:02;;;;;;;1.40;1.05;;;16.80;99.90;;;;;;5029342;28;20087;-59
2022/05/10 02:07:28;;;;;;;1.70;1.30;;;16.80;99.90;;;;;;5030601;28;20077;-59
2022/05/10 02:10:05;;;;;;;2.25;1.48;;;16.80;99.90;;;;;;5030340;28;20056;-58
2022/05/10 02:12:59;;;;;;;1.88;1.15;;;16.70;99.90;;;;;;5040673;28;20107;-58
2022/05/10 02:16:00;;;;;;;1.80;1.20;;;16.70;99.90;;;;;;5013330;28;20137;-59
2022/05/10 02:18:32;;;;;;;1.60;1.25;;;16.70;99.90;;;;;;5014171;28;20084;-59
2022/05/10 02:21:18;;;;;;;1.83;1.23;;;16.70;99.90;;;;;;5019873;28;20069;-59
2022/05/10 02:23:57;;;;;;;1.63;1.40;;;16.70;99.90;;;;;;5030068;28;20195;-59
2022/05/10 02:26:52;;;;;;;1.90;1.25;;;16.60;99.90;;;;;;5047636;28;20128;-58
2022/05/10 02:29:37;;;;;;;2.35;1.70;;;16.60;99.90;;;;;;5029740;28;20080;-58
2022/05/10 02:34:56;;;;;;;2.08;1.30;;;16.60;99.90;;;;;;5029482;28;20137;-59
2022/05/10 02:37:23;;;;;;;2.03;1.30;;;16.50;99.90;;;;;;5011487;28;20083;-59
2022/05/10 02:39:49;;;;;;;1.65;1.38;;;16.50;99.90;;;;;;5040585;28;20129;-57
2022/05/10 02:42:17;;;;;;;1.98;1.40;;;16.50;99.90;;;;;;5019022;28;20041;-58
2022/05/10 02:44:44;;;;;;;1.67;1.23;;;16.50;99.90;;;;;;5027668;28;20081;-58
2022/05/10 02:47:11;;;;;;;2.50;1.40;;;16.40;99.90;;;;;;5029611;28;20076;-58
2022/05/10 02:49:38;;;;;;;1.42;1.10;;;16.40;99.90;;;;;;5029338;28;20141;-59
2022/05/10 02:52:05;;;;;;;1.80;1.25;;;16.40;99.90;;;;;;5009486;28;20053;-59
2022/05/10 02:54:32;;;;;;;1.92;1.42;;;16.40;99.90;;;;;;5046021;28;20096;-59
2022/05/10 02:56:59;;;;;;;2.38;1.67;;;16.40;99.90;;;;;;5046228;28;20741;-59
2022/05/10 02:59:28;;;;;;;2.15;1.77;;;16.40;99.90;;;;;;5014237;28;20132;-59
2022/05/10 03:02:13;;;;;;;2.60;2.10;;;16.40;99.90;;;;;;5010395;28;20050;-59
2022/05/10 03:04:43;;;;;;;1.70;1.55;;;16.40;99.90;;;;;;5009844;28;20144;-59
2022/05/10 03:07:10;;;;;;;2.10;1.63;;;16.40;99.90;;;;;;5027220;28;20063;-59
2022/05/10 03:09:37;;;;;;;1.90;1.50;;;16.40;99.90;;;;;;5009797;28;20046;-59
2022/05/10 03:12:05;;;;;;;2.45;1.77;;;16.40;99.90;;;;;;5031133;28;20140;-58
2022/05/10 03:14:32;;;;;;;2.28;1.88;;;16.30;99.90;;;;;;5046796;28;20076;-59
2022/05/10 03:16:59;;;;;;;2.97;2.13;;;16.30;99.90;;;;;;5046778;28;20613;-59
2022/05/10 03:19:26;;;;;;;2.00;1.58;;;16.40;99.90;;;;;;5032203;28;20053;-59
2022/05/10 03:21:52;;;;;;;2.15;1.58;;;16.40;99.90;;;;;;5036678;28;20091;-58
2022/05/10 03:24:19;;;;;;;2.78;2.00;;;16.40;99.90;;;;;;5045958;28;20055;-59
2022/05/10 03:26:48;;;;;;;1.67;1.58;;;16.40;99.90;;;;;;5030291;28;20077;-58
2022/05/10 03:29:15;;;;;;;2.65;2.00;;;16.40;99.90;;;;;;5044115;28;20087;-59
2022/05/10 03:31:42;;;;;;;2.08;1.60;;;16.40;99.90;;;;;;5030203;28;20592;-59
2022/05/10 03:36:55;;;;;;;2.92;2.35;;;16.40;99.90;;;;;;5026350;28;20559;-59
2022/05/10 03:39:21;;;;;;;3.35;1.83;;;16.40;99.90;;;;;;5026692;28;20141;-59
2022/05/10 03:41:48;;;;;;;1.90;1.70;;;16.40;99.90;;;;;;5035502;28;20041;-58
2022/05/10 03:44:15;;;;;;;1.98;1.55;;;16.30;99.90;;;;;;5038878;28;20390;-58
2022/05/10 03:46:44;;;;;;;1.65;1.30;;;16.30;99.90;;;;;;5045948;28;20514;-58
2022/05/10 03:49:11;;;;;;;1.40;1.05;;;16.30;99.90;;;;;;5029457;28;20088;-59
2022/05/10 03:51:44;;;;;;;1.25;1.15;;;16.30;99.90;;;;;;5032377;28;20081;-59
2022/05/10 03:54:10;;;;;;;2.20;1.20;;;16.20;99.90;;;;;;5038471;28;20139;-59
2022/05/10 03:56:37;;;;;;;1.50;1.15;;;16.20;99.90;;;;;;5045572;28;20135;-59
2022/05/10 03:59:04;;;;;;;1.15;0.85;;;16.20;99.90;;;;;;5026789;28;20495;-59
2022/05/10 04:01:31;;;;;;;1.77;1.30;;;16.10;99.90;;;;;;5045132;28;20080;-59
2022/05/10 04:03:58;;;;;;;1.85;1.27;;;16.10;99.90;;;;;;5045224;28;20099;-66
2022/05/10 04:06:24;;;;;;;2.00;1.20;;;16.00;99.90;;;;;;5028008;28;20467;-59
2022/05/10 04:08:51;;;;;;;2.35;1.23;;;16.00;99.90;;;;;;5045930;28;20076;-58
2022/05/10 04:11:18;;;;;;;2.35;1.30;;;15.90;99.90;;;;;;5045955;28;20160;-60
2022/05/10 04:13:44;;;;;;;1.48;1.38;;;15.90;99.90;;;;;;5035230;28;20139;-59
2022/05/10 04:16:11;;;;;;;1.90;1.40;;;15.80;99.90;;;;;;5045055;28;20076;-58
2022/05/10 04:18:38;;;;;;;1.75;1.20;;;15.80;99.90;;;;;;5029784;28;20061;-58
2022/05/10 04:21:05;;;;;;;1.58;1.20;;;15.80;99.90;;;;;;5035432;28;20412;-58
2022/05/10 04:23:32;;;;;;;1.85;1.40;;;15.80;99.90;;;;;;5042880;28;20044;-59
2022/05/10 04:26:11;;;;;;;1.98;1.40;;;15.70;99.90;;;;;;5032996;28;20045;-58
2022/05/10 04:28:38;;;;;;;2.10;1.60;;;15.70;99.90;;;;;;5032294;28;20485;-59
2022/05/10 04:31:05;;;;;;;1.85;1.33;;;15.70;99.90;;;;;;5035195;28;20079;-59
2022/05/10 04:33:32;;;;;;;2.00;1.30;;;15.70;99.90;;;;;;5042119;28;20079;-59
2022/05/10 04:35:58;;;;;;;1.35;1.08;;;15.70;99.90;;;;;;5026619;28;20092;-59
2022/05/10 04:38:25;;;;;;;1.40;1.10;;;15.70;99.90;;;;;;5042799;28;20364;-59
2022/05/10 04:43:37;;;;;;;1.45;1.10;;;15.60;99.90;;;;;;5018829;28;20129;-59
2022/05/10 04:46:04;;;;;;;1.48;1.00;;;15.60;99.90;;;;;;5036403;28;20056;-59
2022/05/10 04:48:33;;;;;;;1.50;1.30;;;15.60;99.90;;;;;;5036786;28;20077;-59
2022/05/10 04:51:01;;;;;;;1.33;1.13;;;15.60;99.90;;;;;;5031498;28;20046;-59
2022/05/10 04:53:28;;;;;;;1.35;0.98;;;15.60;99.90;;;;;;5039303;28;20511;-59
2022/05/10 04:55:55;;;;;;;1.67;1.23;;;15.50;99.90;;;;;;5027988;28;20095;-59
2022/05/10 04:58:21;;;;;;;1.83;1.30;;;15.50;99.90;;;;;;5025281;28;20424;-59
2022/05/10 05:00:48;;;;;;;2.05;1.20;;;15.40;99.90;;;;;;5036228;28;20046;-59
2022/05/10 05:03:15;;;;;;;2.03;1.30;;;15.40;99.90;;;;;;5038503;28;20440;-59
2022/05/10 05:05:42;;;;;;;1.10;0.93;;;15.40;99.90;;;;;;5037901;28;20140;-59
2022/05/10 05:08:08;;;;;;;1.70;1.30;;;15.40;99.90;;;;;;5025028;28;20084;-60
2022/05/10 05:10:35;;;;;;;1.77;1.20;;;15.40;99.90;;;;;;5037360;28;20103;-58
2022/05/10 05:13:02;;;;;;;1.23;1.00;;;15.50;99.90;;;;;;5038120;28;20670;-59
2022/05/10 05:15:29;;;;;;;1.63;1.27;;;15.40;99.90;;;;;;5033850;28;20049;-60
2022/05/10 05:17:56;;;;;;;1.75;1.33;;;15.50;99.90;;;;;;5034248;28;20163;-59
2022/05/10 05:20:23;;;;;;;1.23;0.85;;;15.50;99.90;;;;;;5031615;28;20136;-59
2022/05/10 05:22:49;;;;;;;1.48;1.02;;;15.50;99.90;;;;;;5029444;28;20125;-59
2022/05/10 05:25:16;;;;;;;1.83;0.90;;;15.50;99.90;;;;;;5035385;28;20048;-59
2022/05/10 05:27:43;;;;;;;1.00;0.90;;;15.50;99.90;;;;;;5030750;28;20536;-58
2022/05/10 05:30:15;;;;;;;1.35;1.05;;;15.50;99.90;;;;;;5036644;28;20157;-59
2022/05/10 05:32:42;;;;;;;0.95;0.80;;;15.50;99.90;;;;;;5030856;28;20041;-59
2022/05/10 05:35:10;;;;;;;1.33;1.05;;;15.50;99.90;;;;;;5045546;28;20045;-59
2022/05/10 05:37:37;;;;;;;1.30;1.02;;;15.50;99.90;;;;;;5045261;28;20048;-59
2022/05/10 05:40:06;;;;;;;1.45;1.08;;;15.50;99.90;;;;;;5048369;28;20112;-59
2022/05/10 05:42:32;;;;;;;1.50;1.13;;;15.50;99.90;;;;;;5040120;28;20049;-59
2022/05/10 05:44:59;;;;;;;0.77;0.70;;;15.50;99.90;;;;;;5024703;28;20595;-58
2022/05/10 05:47:26;;;;;;;2.08;1.40;;;15.60;99.90;;;;;;5044055;28;20051;-59
2022/05/10 05:49:53;;;;;;;1.50;1.00;;;15.50;99.90;;;;;;5040421;28;20069;-59
2022/05/10 05:52:22;;;;;;;1.65;1.10;;;15.50;99.90;;;;;;5025254;28;20144;-59
2022/05/10 05:54:52;;;;;;;1.75;1.25;;;15.50;99.90;;;;;;5025042;28;20049;-59
2022/05/10 05:57:19;;;;;;;1.55;1.00;;;15.60;99.90;;;;;;5033442;28;20389;-59
2022/05/10 05:59:46;;;;;;;2.53;1.50;;;15.50;99.90;;;;;;5033689;28;20056;-60
2022/05/10 06:02:15;;;;;;;1.88;1.40;;;15.50;99.90;;;;;;5037873;28;20140;-59
2022/05/10 06:04:42;;;;;;;2.95;1.60;;;15.60;99.90;;;;;;5019294;28;20045;-59
2022/05/10 06:07:09;;;;;;;1.98;1.40;;;15.60;99.90;;;;;;5026328;28;20107;-59
2022/05/10 06:09:39;;;;;;;2.15;1.75;;;15.60;99.90;;;;;;5046844;28;20076;-59
2022/05/10 06:12:07;;;;;;;3.38;1.90;;;15.70;99.90;;;;;;5040101;28;20136;-59
2022/05/10 06:14:34;;;;;;;2.97;2.25;;;15.60;99.90;;;;;;5041438;28;20140;-60
2022/05/10 06:17:07;;;;;;;2.40;2.08;;;15.70;99.90;;;;;;5038319;28;20053;-59
2022/05/10 06:19:36;;;;;;;3.33;2.10;;;15.70;99.90;;;;;;5040867;28;20567;-60
2022/05/10 06:22:03;;;;;;;2.20;1.90;;;15.70;99.90;;;;;;5036283;28;20461;-61
2022/05/10 06:24:30;;;;;;;3.00;2.50;;;15.80;99.90;;;;;;5019840;28;20136;-59
2022/05/10 06:26:56;;;;;;;3.10;2.03;;;15.70;99.90;;;;;;5020974;28;20049;-59
2022/05/10 06:29:23;;;;;;;3.13;1.95;;;15.70;99.90;;;;;;5008976;28;20214;-59
2022/05/10 06:31:50;;;;;;;3.20;2.83;;;15.80;99.90;;;;;;5031141;28;20124;-61
2022/05/10 06:34:17;;;;;;;4.25;2.70;;;15.70;99.90;;;;;;5037313;28;20045;-60
2022/05/10 06:36:44;;;;;;;3.53;2.60;;;15.70;99.90;;;;;;5019615;28;20508;-59
2022/05/10 06:39:10;;;;;;;4.28;3.30;;;15.70;99.90;;;;;;5042634;28;20049;-59
2022/05/10 06:41:37;;;;;;;3.05;2.70;;;15.80;99.90;;;;;;5025969;28;20132;-59
2022/05/10 06:44:04;;;;;;;3.17;2.47;;;15.80;99.90;;;;;;5043671;28;20143;-59
2022/05/10 06:46:32;;;;;;;3.30;2.50;;;16.00;99.90;;;;;;5036489;28;20077;-60
2022/05/10 06:49:02;;;;;;;3.15;2.13;;;16.00;99.90;;;;;;5036779;28;20064;-59
2022/05/10 06:51:29;;;;;;;2.83;2.20;;;16.10;99.90;;;;;;5043030;28;20088;-59
2022/05/10 06:53:55;;;;;;;2.70;2.50;;;16.10;99.90;;;;;;5046011;28;20076;-59
2022/05/10 06:56:22;;;;;;;3.55;2.40;;;16.00;99.90;;;;;;5029106;28;20056;-59
2022/05/10 06:58:49;;;;;;;5.43;4.13;;;15.90;99.90;;;;;;5027416;28;20054;-59
2022/05/10 07:01:16;;;;;;;3.53;2.55;;;15.70;99.90;;;;;;5045686;28;20151;-59
2022/05/10 07:03:48;;;;;;;3.85;2.70;;;15.70;99.90;;;;;;5043045;28;20341;-60
2022/05/10 07:06:16;;;;;;;3.38;2.45;;;15.60;99.90;;;;;;5025420;28;20485;-59
2022/05/10 07:08:43;;;;;;;4.05;2.70;;;15.60;99.90;;;;;;5045612;28;20069;-59
2022/05/10 07:11:11;;;;;;;3.67;3.17;;;15.60;99.90;;;;;;5044371;28;20083;-58
2022/05/10 07:13:38;;;;;;;3.22;2.80;;;15.60;99.90;;;;;;5042728;28;20465;-59
2022/05/10 07:16:04;;;;;;;2.80;2.53;;;15.60;99.90;;;;;;5045148;28;20072;-58
2022/05/10 07:18:31;;;;;;;3.28;2.63;;;15.70;99.90;;;;;;5046930;28;20079;-59
2022/05/10 07:20:58;;;;;;;2.53;2.13;;;15.70;99.90;;;;;;5035345;28;20140;-58
2022/05/10 07:23:30;;;;;;;3.47;2.40;;;15.60;99.90;;;;;;5035338;28;20128;-59
2022/05/10 07:26:03;;;;;;;2.90;2.25;;;15.60;99.90;;;;;;5025792;28;20057;-59
2022/05/10 07:28:29;;;;;;;2.50;1.80;;;15.60;99.90;;;;;;5026751;28;20385;-59
2022/05/10 07:30:57;;;;;;;4.00;2.28;;;15.60;99.90;;;;;;5040722;28;20072;-58
2022/05/10 07:33:25;;;;;;;2.50;2.00;;;15.60;99.90;;;;;;5043391;28;20255;-59
2022/05/10 07:38:38;;;;;;;2.03;1.83;;;15.60;99.90;;;;;;5027252;28;20052;-58
2022/05/10 07:41:05;;;;;;;2.08;1.65;;;15.70;99.90;;;;;;5042702;28;20080;-59
2022/05/10 07:43:36;;;;;;;2.25;1.70;;;15.70;99.90;;;;;;5041567;28;20079;-59
2022/05/10 07:46:04;;;;;;;2.45;1.42;;;15.70;99.90;;;;;;5042100;28;20057;-59
2022/05/10 07:48:30;;;;;;;1.73;1.50;;;15.80;99.90;;;;;;5040787;28;20454;-58
2022/05/10 07:50:57;;;;;;;2.17;1.67;;;15.80;99.90;;;;;;5040354;28;20128;-58
2022/05/10 07:53:24;;;;;;;2.10;1.67;;;15.70;99.90;;;;;;5040788;28;20072;-58
2022/05/10 07:55:51;;;;;;;3.95;1.80;;;15.70;99.90;;;;;;5034700;28;20122;-58
2022/05/10 07:58:17;;;;;;;2.58;1.65;;;15.60;99.90;;;;;;5042167;28;20151;-59
2022/05/10 08:00:44;;;;;;;2.90;2.00;;;15.60;99.90;;;;;;5043687;28;20140;-58
2022/05/10 08:03:13;;;;;;;2.67;2.03;;;15.60;99.90;;;;;;5046178;28;20075;-58
2022/05/10 08:05:41;;;;;;;2.35;1.90;;;15.70;99.90;;;;;;5042783;28;20049;-58
2022/05/10 08:08:08;;;;;;;2.10;1.73;;;15.60;99.90;;;;;;5046310;28;20121;-59
2022/05/10 08:10:35;;;;;;;2.00;1.80;;;15.70;99.90;;;;;;5043957;28;20132;-58
2022/05/10 08:13:02;;;;;;;1.92;1.52;;;15.80;99.90;;;;;;5042111;28;20084;-59
2022/05/10 08:15:28;;;;;;;2.00;1.50;;;15.80;99.90;;;;;;5027365;28;20141;-59
2022/05/10 08:17:55;;;;;;;1.75;1.48;;;15.90;99.90;;;;;;5042988;28;20049;-59
2022/05/10 08:20:22;;;;;;;1.80;1.42;;;16.00;99.90;;;;;;5043070;28;20048;-58
2022/05/10 08:22:49;;;;;;;1.52;1.40;;;16.10;99.90;;;;;;5045117;28;20745;-58
2022/05/10 08:25:15;;;;;;;1.92;1.27;;;16.20;99.90;;;;;;5033865;28;20140;-58
2022/05/10 08:27:42;;;;;;;1.90;1.30;;;16.30;99.90;;;;;;5042473;28;20240;-58
2022/05/10 08:30:09;;;;;;;2.30;1.48;;;16.20;99.90;;;;;;5039248;28;20500;-58
2022/05/10 08:32:36;;;;;;;1.92;1.70;;;16.30;99.90;;;;;;5039038;28;20125;-59
2022/05/10 08:35:23;;;;;;;1.70;1.50;;;16.30;99.90;;;;;;5030978;28;20082;-59
2022/05/10 08:37:50;;;;;;;2.85;1.85;;;16.20;99.90;;;;;;5034041;28;20397;-59
2022/05/10 08:40:29;;;;;;;1.80;1.50;;;16.20;99.90;;;;;;5024619;28;20050;-59
2022/05/10 08:42:58;;;;;;;2.50;1.83;;;16.20;99.90;;;;;;5021151;28;20806;-59
2022/05/10 08:45:25;;;;;;;2.80;1.70;;;16.30;99.90;;;;;;5020531;28;20696;-58
2022/05/10 08:47:52;;;;;;;1.52;1.40;;;16.30;99.90;;;;;;5033451;28;20037;-59
2022/05/10 08:50:19;;;;;;;1.98;1.40;;;16.40;99.90;;;;;;5019910;28;20107;-58
2022/05/10 08:53:03;;;;;;;1.70;1.30;;;16.40;99.90;;;;;;5030429;28;20586;-59
2022/05/10 08:55:31;;;;;;;1.77;1.40;;;16.40;99.90;;;;;;5020827;28;20584;-59
2022/05/10 08:58:08;;;;;;;1.75;1.10;;;16.50;99.90;;;;;;5021514;28;20471;-59
2022/05/10 09:00:50;;;;;;;1.42;1.05;;;16.60;99.90;;;;;;5019920;28;20069;-58
2022/05/10 09:03:23;;;;;;;1.58;1.10;;;16.70;99.90;;;;;;5005945;28;20136;-59
2022/05/10 09:05:50;;;;;;;;;;;16.70;99.90;;;;;;5033124;28;20065;-58
2022/05/10 09:08:34;;;;;;;1.55;1.20;;;16.60;99.90;;;;;;5025257;28;19947;-59
2022/05/10 09:11:03;;;;;;;1.95;1.02;;;16.60;99.90;;;;;;5025093;28;20136;-58
2022/05/10 09:13:29;;;;;;;2.00;1.23;;;16.60;99.90;;;;;;5040756;28;20136;-59
2022/05/10 09:15:58;;;;;;;1.25;1.08;;;16.60;99.90;;;;;;5022977;28;20088;-59
2022/05/10 09:18:27;;;;;;;1.45;1.00;;;16.60;99.90;;;;;;5007266;28;20045;-59
2022/05/10 09:21:25;;;;;;;3.25;1.52;;;16.70;99.90;;;;;;5040255;28;20057;-59
2022/05/10 09:24:27;;;;;;;1.60;1.33;;;16.60;99.90;;;;;;5042332;28;20053;-59
2022/05/10 09:27:09;;;;;;;2.78;1.60;;;16.50;99.90;;;;;;5027143;28;20132;-59
2022/05/10 09:29:37;;;;;;;1.70;1.10;;;16.60;99.90;;;;;;5039119;28;20125;-59
2022/05/10 09:35:09;;;;;;;1.52;1.10;;;16.80;99.90;;;;;;5031481;28;20053;-59
2022/05/10 09:37:39;;;;;;;4.60;1.88;;;16.80;99.90;;;;;;5040242;28;20045;-59
2022/05/10 09:40:09;;;;;;;2.10;1.48;;;16.90;99.90;;;;;;5039198;28;20128;-59
2022/05/10 09:42:40;;;;;;;1.92;1.10;;;16.90;99.90;;;;;;5040490;28;20236;-59
2022/05/10 09:45:16;;;;;;;1.15;1.00;;;17.00;99.90;;;;;;5038141;28;20048;-59
2022/05/10 09:48:09;;;;;;;1.38;1.00;;;17.10;99.90;;;;;;5040752;28;20486;-59
2022/05/10 09:50:43;;;;;;;1.98;1.20;;;17.20;99.90;;;;;;5032295;28;20555;-59
2022/05/10 09:53:15;;;;;;;2.95;1.42;;;17.30;99.90;;;;;;5038938;28;20143;-59
2022/05/10 09:56:04;;;;;;;1.80;1.30;;;17.10;99.90;;;;;;5009312;28;20124;-59
2022/05/10 09:58:43;;;;;;;2.38;1.00;;;17.00;99.90;;;;;;5040722;28;20056;-59
2022/05/10 10:01:11;;;;;;;1.83;1.23;;;17.20;99.90;;;;;;5021640;28;20577;-59
2022/05/10 10:03:39;;;;;;;1.92;1.27;;;17.30;99.90;;;;;;5040969;28;20052;-58
2022/05/10 10:06:23;;;;;;;2.65;1.58;;;17.50;99.90;;;;;;5041477;28;20049;-59
2022/05/10 10:08:52;;;;;;;2.20;1.27;;;17.60;99.90;;;;;;5036218;28;20633;-61
2022/05/10 10:11:22;;;;;;;2.05;1.35;;;17.80;99.90;;;;;;5031585;28;20500;-63
2022/05/10 10:13:51;;;;;;;3.50;1.30;;;17.90;99.90;;;;;;5041191;28;20761;-59
2022/05/10 10:16:50;;;;;;;2.47;1.08;;;18.00;99.90;;;;;;5005758;28;20124;-60
2022/05/10 10:19:31;;;;;;;1.27;0.60;;;18.30;99.90;;;;;;4997418;28;20052;-59
2022/05/10 10:22:18;;;;;;;1.27;1.02;;;18.60;99.90;;;;;;5006646;28;20137;-59
2022/05/10 10:25:03;;;;;;;1.33;0.90;;;18.90;99.90;;;;;;5021672;28;20144;-59
2022/05/10 10:27:42;;;;;;;1.40;1.10;;;19.00;99.90;;;;;;5035441;28;20139;-59
2022/05/10 10:30:33;;;;;;;1.48;1.00;;;19.20;99.90;;;;;;5022210;28;20136;-59
2022/05/10 10:33:27;;;;;;;1.63;0.90;;;19.20;99.90;;;;;;5022911;28;20514;-58
2022/05/10 10:35:56;;;;;;;2.70;1.00;;;19.40;99.90;;;;;;5021918;28;20049;-59
2022/05/10 10:38:31;;;;;;;1.52;0.90;;;19.40;99.90;;;;;;5006649;28;21072;-58
2022/05/10 10:41:08;;;;;;;1.38;0.88;;;19.40;99.90;;;;;;5019870;28;20532;-59
2022/05/10 10:43:44;;;;;;;1.40;1.02;;;19.20;99.90;;;;;;5006023;28;20554;-59
2022/05/10 10:46:29;;;;;;;1.80;1.50;;;19.10;99.90;;;;;;5038570;28;20671;-59
2022/05/10 10:49:13;;;;;;;1.40;0.93;;;18.90;99.90;;;;;;5011468;28;20472;-57
2022/05/10 10:51:39;;;;;;;2.40;1.20;;;18.80;99.90;;;;;;5033513;28;20200;-59
2022/05/10 10:54:09;;;;;;;1.42;1.10;;;18.80;99.90;;;;;;5004206;28;20489;-58
2022/05/10 10:56:48;;;;;;;2.13;1.10;;;18.60;99.90;;;;;;5016352;28;20473;-59
2022/05/10 10:59:24;;;;;;;2.38;1.40;;;18.50;99.90;;;;;;5022546;28;20052;-59
2022/05/10 11:02:00;;;;;;;2.50;1.60;;;18.40;99.90;;;;;;5038135;28;20163;-59
2022/05/10 11:04:36;;;;;;;2.28;1.20;;;18.30;99.90;;;;;;5014505;28;20100;-59
2022/05/10 11:07:16;;;;;;;3.13;1.27;;;18.20;99.90;;;;;;5038494;28;20121;-59
2022/05/10 11:10:07;;;;;;;3.08;1.45;;;18.20;99.90;;;;;;5023475;28;20087;-60
2022/05/10 11:12:45;;;;;;;1.65;1.30;;;18.20;99.90;;;;;;5039396;28;20769;-58
2022/05/10 11:15:16;;;;;;;2.75;1.52;;;18.20;99.90;;;;;;5021882;28;20137;-58
2022/05/10 11:18:01;;;;;;;2.15;1.30;;;18.20;99.90;;;;;;5022178;28;20056;-59
2022/05/10 11:20:46;;;;;;;1.67;0.90;;;18.10;99.90;;;;;;5038715;28;20085;-59
2022/05/10 11:23:20;;;;;;;2.03;1.20;;;18.20;99.90;;;;;;5020313;28;20499;-59
2022/05/10 11:26:19;;;;;;;1.83;1.02;;;18.20;99.90;;;;;;5003010;28;20121;-58
2022/05/10 11:29:02;;;;;;;1.83;1.30;;;18.00;99.90;;;;;;5014466;28;20227;-58
2022/05/10 11:32:04;;;;;;;1.35;1.08;;;17.80;99.90;;;;;;5029267;28;20051;-57
2022/05/10 11:34:50;;;;;;;3.17;1.63;;;17.70;99.90;;;;;;4998047;28;20041;-58
2022/05/10 11:37:31;;;;;;;1.52;1.15;;;17.50;99.90;;;;;;5038884;28;20076;-59
2022/05/10 11:40:04;;;;;;;1.75;1.40;;;17.50;99.90;;;;;;5004203;28;20049;-58
2022/05/10 11:42:53;;;;;;;2.72;1.23;;;17.50;99.90;;;;;;5039998;28;20064;-59
2022/05/10 11:46:01;;;;;;;2.38;1.67;;;17.40;99.90;;;;;;5023862;28;20463;-59
2022/05/10 11:48:39;;;;;;;3.08;1.58;;;17.20;99.90;;;;;;5017369;28;20796;-59
2022/05/10 11:54:17;;;;;;;2.13;1.27;;;16.90;99.90;;;;;;5038679;28;20055;-59
2022/05/10 11:56:44;;;;;;;1.67;1.20;;;16.80;99.90;;;;;;5021562;28;20040;-59
2022/05/10 11:59:23;;;;;;;1.85;1.45;;;16.80;99.90;;;;;;5021588;28;20084;-59
2022/05/10 12:01:51;;;;;;;1.88;1.38;;;16.70;99.90;;;;;;5020339;28;20144;-59
2022/05/10 12:04:35;;;;;;;2.22;1.42;;;16.60;99.90;;;;;;5035042;28;20045;-59
2022/05/10 12:07:20;;;;;;;1.83;1.20;;;16.40;99.90;;;;;;5039039;28;20057;-59
2022/05/10 12:09:56;;;;;;;1.75;1.35;;;16.30;99.90;;;;;;5019870;28;20053;-59
2022/05/10 12:12:32;;;;;;;1.77;1.48;;;16.30;99.90;;;;;;5035477;28;20052;-58
2022/05/10 12:24:06;;;;;;;1.52;1.05;;;16.40;99.90;;;;;;5035623;28;20144;-60
2022/05/10 12:26:49;;;;;;;;;;;16.70;99.90;;;;;;5033722;28;20114;-59
2022/05/10 12:29:40;;;;;;;1.98;1.60;;;17.00;99.90;;;;;;5019136;28;19928;-59
2022/05/10 12:32:41;;;;;;;2.05;1.50;;;17.40;99.90;;;;;;5038650;28;20056;-59
2022/05/10 12:35:41;;;;;;;1.77;1.60;;;17.70;99.90;;;;;;5035398;28;20051;-60
2022/05/10 12:38:28;;;;;;;2.13;1.48;;;18.20;99.90;;;;;;5020160;28;20053;-60
2022/05/10 12:41:08;;;;;;;1.90;1.30;;;18.50;99.90;;;;;;5022199;28;20041;-59
2022/05/10 12:44:11;;;;;;;1.58;1.48;;;19.00;99.90;;;;;;5021892;28;20081;-60
2022/05/10 12:46:58;;;;;;;3.05;1.83;;;19.20;99.90;;;;;;5008716;28;20088;-60
2022/05/10 12:49:49;;;;;;;2.45;2.20;;;19.30;99.90;;;;;;5016308;28;20520;-59
2022/05/10 12:52:51;;;;;;;2.35;1.88;;;19.50;99.90;;;;;;4976456;28;20145;-60
2022/05/10 12:55:22;;;;;;;2.15;1.80;;;19.70;99.90;;;;;;4984425;28;20147;-60
2022/05/10 12:57:54;;;;;;;2.22;2.00;;;19.80;99.90;;;;;;5015069;28;20591;-60
2022/05/10 13:00:23;;;;;;;1.92;1.48;;;20.10;99.90;;;;;;5013427;28;20073;-65
2022/05/10 13:03:12;;;;;;;2.10;1.70;;;20.20;99.90;;;;;;5023194;28;20069;-61
2022/05/10 13:05:47;;;;;;;1.63;1.15;;;20.60;99.90;;;;;;5035588;28;20053;-61
2022/05/10 13:08:22;;;;;;;1.35;1.13;;;21.10;99.90;;;;;;5039170;28;20500;-60
2022/05/10 13:10:50;;;;;;;1.48;1.38;;;21.50;99.90;;;;;;5034949;28;20049;-61
2022/05/10 13:13:18;;;;;;;2.70;2.33;;;22.10;99.90;;;;;;5020748;28;20139;-59
2022/05/10 13:15:45;;;;;;;2.75;1.95;;;22.20;99.90;;;;;;5020453;28;20056;-62
2022/05/10 13:18:21;;;;;;;2.25;1.50;;;22.60;99.90;;;;;;5034177;28;20391;-61
2022/05/10 13:20:49;;;;;;;1.42;1.20;;;23.40;99.90;;;;;;5034070;28;20049;-61
2022/05/10 13:23:16;;;;;;;2.47;1.60;;;23.60;99.90;;;;;;5004489;28;20615;-59
2022/05/10 13:25:43;;;;;;;2.70;1.70;;;23.90;99.90;;;;;;5015918;28;20133;-60
2022/05/10 13:28:18;;;;;;;1.90;1.60;;;23.80;99.90;;;;;;5017897;28;20193;-60
2022/05/10 13:30:46;;;;;;;1.80;1.52;;;23.70;99.90;;;;;;5032962;28;20127;-60
2022/05/10 13:33:26;;;;;;;1.67;1.38;;;23.60;99.90;;;;;;5023215;28;20084;-59
2022/05/10 13:36:01;;;;;;;1.25;1.00;;;23.30;99.90;;;;;;5033889;28;20144;-59
2022/05/10 13:38:47;;;;;;;1.55;1.40;;;23.10;99.90;;;;;;4999705;28;20132;-60
2022/05/10 13:41:22;;;;;;;1.67;1.33;;;23.00;99.90;;;;;;5019882;28;20136;-60
2022/05/10 13:43:53;;;;;;;1.35;1.23;;;23.60;99.90;;;;;;5017554;28;20080;-59